sensor_id;sensor_type;location;lat;lon;timestamp;pressure;altitude;pressure_sealevel;temperature;humidity
30302;BME280;17111;52.130;5.028;2023-12-04T00:01:56;101319.78;;;16.44;45.04
30302;BME280;17111;52.130;5.028;2023-12-04T00:04:23;101318.63;;;16.47;44.77
30302;BME280;17111;52.130;5.028;2023-12-04T00:06:50;101319.09;;;16.52;44.66
30302;BME280;17111;52.130;5.028;2023-12-04T00:09:17;101306.28;;;16.56;45.12
30302;BME280;17111;52.130;5.028;2023-12-04T00:11:43;101312.22;;;16.59;44.90
30302;BME280;17111;52.130;5.028;2023-12-04T00:14:10;101303.94;;;16.62;45.40
30302;BME280;17111;52.130;5.028;2023-12-04T00:16:36;101307.31;;;16.64;44.91
30302;BME280;17111;52.130;5.028;2023-12-04T00:19:03;101315.22;;;16.66;44.79
30302;BME280;17111;52.130;5.028;2023-12-04T00:21:30;101301.13;;;16.64;45.25
30302;BME280;17111;52.130;5.028;2023-12-04T00:23:56;101294.91;;;16.63;45.36
30302;BME280;17111;52.130;5.028;2023-12-04T00:26:23;101304.09;;;16.61;44.67
30302;BME280;17111;52.130;5.028;2023-12-04T00:28:50;101297.16;;;16.58;44.95
30302;BME280;17111;52.130;5.028;2023-12-04T00:31:17;101305.44;;;16.55;44.29
30302;BME280;17111;52.130;5.028;2023-12-04T00:33:43;101298.66;;;16.51;44.77
30302;BME280;17111;52.130;5.028;2023-12-04T00:36:10;101300.63;;;16.49;44.84
30302;BME280;17111;52.130;5.028;2023-12-04T00:38:37;101300.91;;;16.46;44.69
30302;BME280;17111;52.130;5.028;2023-12-04T00:41:03;101303.81;;;16.43;44.61
30302;BME280;17111;52.130;5.028;2023-12-04T00:43:30;101308.47;;;16.41;44.51
30302;BME280;17111;52.130;5.028;2023-12-04T00:45:57;101298.03;;;16.38;44.19
30302;BME280;17111;52.130;5.028;2023-12-04T00:48:23;101292.94;;;16.35;45.41
30302;BME280;17111;52.130;5.028;2023-12-04T00:50:51;101300.25;;;16.33;45.15
30302;BME280;17111;52.130;5.028;2023-12-04T00:53:17;101292.50;;;16.29;45.25
30302;BME280;17111;52.130;5.028;2023-12-04T00:55:44;101296.41;;;16.25;44.69
30302;BME280;17111;52.130;5.028;2023-12-04T00:58:11;101287.53;;;16.25;45.00
30302;BME280;17111;52.130;5.028;2023-12-04T01:00:38;101276.84;;;16.25;44.69
30302;BME280;17111;52.130;5.028;2023-12-04T01:03:04;101284.72;;;16.26;44.96
30302;BME280;17111;52.130;5.028;2023-12-04T01:05:31;101273.88;;;16.28;45.35
30302;BME280;17111;52.130;5.028;2023-12-04T01:07:57;101273.50;;;16.33;45.00
30302;BME280;17111;52.130;5.028;2023-12-04T01:10:24;101267.03;;;16.35;44.87
30302;BME280;17111;52.130;5.028;2023-12-04T01:12:51;101263.09;;;16.39;45.28
30302;BME280;17111;52.130;5.028;2023-12-04T01:15:17;101256.50;;;16.43;45.00
30302;BME280;17111;52.130;5.028;2023-12-04T01:17:44;101259.78;;;16.47;45.54
30302;BME280;17111;52.130;5.028;2023-12-04T01:20:11;101256.84;;;16.50;45.30
30302;BME280;17111;52.130;5.028;2023-12-04T01:22:37;101258.41;;;16.52;45.31
30302;BME280;17111;52.130;5.028;2023-12-04T01:25:04;101249.41;;;16.53;45.63
30302;BME280;17111;52.130;5.028;2023-12-04T01:27:31;101248.56;;;16.53;45.29
30302;BME280;17111;52.130;5.028;2023-12-04T01:29:58;101248.66;;;16.51;45.78
30302;BME280;17111;52.130;5.028;2023-12-04T01:32:25;101249.66;;;16.50;45.33
30302;BME280;17111;52.130;5.028;2023-12-04T01:34:52;101252.47;;;16.49;45.98
30302;BME280;17111;52.130;5.028;2023-12-04T01:37:19;101249.06;;;16.47;46.03
30302;BME280;17111;52.130;5.028;2023-12-04T01:39:45;101242.19;;;16.44;45.45
30302;BME280;17111;52.130;5.028;2023-12-04T01:42:12;101244.13;;;16.42;45.85
30302;BME280;17111;52.130;5.028;2023-12-04T01:44:39;101245.22;;;16.40;45.81
30302;BME280;17111;52.130;5.028;2023-12-04T01:47:05;101237.50;;;16.37;45.22
30302;BME280;17111;52.130;5.028;2023-12-04T01:49:33;101242.94;;;16.35;45.25
30302;BME280;17111;52.130;5.028;2023-12-04T01:52:01;101248.44;;;16.34;45.83
30302;BME280;17111;52.130;5.028;2023-12-04T01:54:28;101233.66;;;16.29;45.68
30302;BME280;17111;52.130;5.028;2023-12-04T01:56:55;101224.78;;;16.29;45.46
30302;BME280;17111;52.130;5.028;2023-12-04T01:59:22;101225.03;;;16.26;46.06
30302;BME280;17111;52.130;5.028;2023-12-04T02:01:51;101222.50;;;16.24;45.90
30302;BME280;17111;52.130;5.028;2023-12-04T02:04:18;101212.75;;;16.23;45.09
30302;BME280;17111;52.130;5.028;2023-12-04T02:06:45;101203.06;;;16.22;45.49
30302;BME280;17111;52.130;5.028;2023-12-04T02:09:11;101202.22;;;16.22;45.39
30302;BME280;17111;52.130;5.028;2023-12-04T02:11:39;101202.78;;;16.25;45.32
30302;BME280;17111;52.130;5.028;2023-12-04T02:14:06;101199.13;;;16.26;46.18
30302;BME280;17111;52.130;5.028;2023-12-04T02:16:39;101196.06;;;16.31;45.52
30302;BME280;17111;52.130;5.028;2023-12-04T02:19:11;101198.63;;;16.33;46.22
30302;BME280;17111;52.130;5.028;2023-12-04T02:21:38;101187.50;;;16.37;45.45
30302;BME280;17111;52.130;5.028;2023-12-04T02:24:05;101181.91;;;16.40;45.99
30302;BME280;17111;52.130;5.028;2023-12-04T02:26:35;101183.31;;;16.44;45.33
30302;BME280;17111;52.130;5.028;2023-12-04T02:29:08;101181.19;;;16.48;46.03
30302;BME280;17111;52.130;5.028;2023-12-04T02:31:39;101175.72;;;16.49;45.73
30302;BME280;17111;52.130;5.028;2023-12-04T02:34:07;101168.53;;;16.50;45.37
30302;BME280;17111;52.130;5.028;2023-12-04T02:36:37;101166.72;;;16.50;45.92
30302;BME280;17111;52.130;5.028;2023-12-04T02:39:05;101166.84;;;16.49;45.47
30302;BME280;17111;52.130;5.028;2023-12-04T02:41:31;101164.19;;;16.49;44.92
30302;BME280;17111;52.130;5.028;2023-12-04T02:43:58;101167.81;;;16.48;46.19
30302;BME280;17111;52.130;5.028;2023-12-04T02:46:25;101152.91;;;16.45;46.01
30302;BME280;17111;52.130;5.028;2023-12-04T02:48:51;101147.66;;;16.44;45.95
30302;BME280;17111;52.130;5.028;2023-12-04T02:51:18;101146.81;;;16.43;45.34
30302;BME280;17111;52.130;5.028;2023-12-04T02:53:45;101146.97;;;16.42;45.22
30302;BME280;17111;52.130;5.028;2023-12-04T02:56:11;101147.22;;;16.39;45.70
30302;BME280;17111;52.130;5.028;2023-12-04T02:58:38;101147.38;;;16.37;45.12
30302;BME280;17111;52.130;5.028;2023-12-04T03:01:04;101136.78;;;16.36;45.21
30302;BME280;17111;52.130;5.028;2023-12-04T03:03:31;101130.88;;;16.32;45.39
30302;BME280;17111;52.130;5.028;2023-12-04T03:05:58;101129.19;;;16.31;45.46
30302;BME280;17111;52.130;5.028;2023-12-04T03:08:25;101124.81;;;16.30;45.59
30302;BME280;17111;52.130;5.028;2023-12-04T03:10:51;101118.63;;;16.29;45.71
30302;BME280;17111;52.130;5.028;2023-12-04T03:13:18;101113.13;;;16.31;45.64
30302;BME280;17111;52.130;5.028;2023-12-04T03:15:44;101112.03;;;16.34;45.96
30302;BME280;17111;52.130;5.028;2023-12-04T03:18:11;101109.09;;;16.37;45.67
30302;BME280;17111;52.130;5.028;2023-12-04T03:20:38;101110.50;;;16.41;45.21
30302;BME280;17111;52.130;5.028;2023-12-04T03:23:05;101100.22;;;16.46;45.63
30302;BME280;17111;52.130;5.028;2023-12-04T03:25:31;101096.31;;;16.50;45.49
30302;BME280;17111;52.130;5.028;2023-12-04T03:27:59;101098.56;;;16.54;45.46
30302;BME280;17111;52.130;5.028;2023-12-04T03:30:25;101089.41;;;16.57;45.13
30302;BME280;17111;52.130;5.028;2023-12-04T03:32:53;101083.78;;;16.60;45.78
30302;BME280;17111;52.130;5.028;2023-12-04T03:35:19;101079.41;;;16.59;45.37
30302;BME280;17111;52.130;5.028;2023-12-04T03:37:46;101075.06;;;16.58;46.04
30302;BME280;17111;52.130;5.028;2023-12-04T03:40:13;101082.34;;;16.56;45.29
30302;BME280;17111;52.130;5.028;2023-12-04T03:42:39;101064.78;;;16.53;45.16
30302;BME280;17111;52.130;5.028;2023-12-04T03:45:07;101069.41;;;16.51;45.51
30302;BME280;17111;52.130;5.028;2023-12-04T03:47:34;101057.28;;;16.47;44.89
30302;BME280;17111;52.130;5.028;2023-12-04T03:50:01;101058.53;;;16.43;44.93
30302;BME280;17111;52.130;5.028;2023-12-04T03:52:27;101051.78;;;16.39;44.73
30302;BME280;17111;52.130;5.028;2023-12-04T03:54:54;101043.16;;;16.36;45.78
30302;BME280;17111;52.130;5.028;2023-12-04T03:57:21;101047.84;;;16.34;44.90
30302;BME280;17111;52.130;5.028;2023-12-04T03:59:47;101041.06;;;16.29;44.60
30302;BME280;17111;52.130;5.028;2023-12-04T04:02:14;101035.00;;;16.27;45.96
30302;BME280;17111;52.130;5.028;2023-12-04T04:04:40;101036.13;;;16.25;44.63
30302;BME280;17111;52.130;5.028;2023-12-04T04:07:08;101032.88;;;16.21;45.08
30302;BME280;17111;52.130;5.028;2023-12-04T04:09:35;101033.00;;;16.20;45.81
30302;BME280;17111;52.130;5.028;2023-12-04T04:12:02;101037.50;;;16.19;45.10
30302;BME280;17111;52.130;5.028;2023-12-04T04:14:29;101026.81;;;16.19;44.79
30302;BME280;17111;52.130;5.028;2023-12-04T04:16:56;101024.03;;;16.21;45.75
30302;BME280;17111;52.130;5.028;2023-12-04T04:19:22;101024.59;;;16.24;46.04
30302;BME280;17111;52.130;5.028;2023-12-04T04:21:49;101029.78;;;16.26;45.32
30302;BME280;17111;52.130;5.028;2023-12-04T04:24:16;101019.78;;;16.28;45.80
30302;BME280;17111;52.130;5.028;2023-12-04T04:26:42;101019.53;;;16.31;45.38
30302;BME280;17111;52.130;5.028;2023-12-04T04:29:09;101012.22;;;16.33;44.98
30302;BME280;17111;52.130;5.028;2023-12-04T04:31:36;101010.22;;;16.35;44.78
30302;BME280;17111;52.130;5.028;2023-12-04T04:34:02;101006.72;;;16.35;44.66
30302;BME280;17111;52.130;5.028;2023-12-04T04:36:29;101004.88;;;16.35;45.10
30302;BME280;17111;52.130;5.028;2023-12-04T04:38:56;100994.19;;;16.35;45.91
30302;BME280;17111;52.130;5.028;2023-12-04T04:41:23;100998.00;;;16.33;45.91
30302;BME280;17111;52.130;5.028;2023-12-04T04:43:49;100995.31;;;16.33;45.03
30302;BME280;17111;52.130;5.028;2023-12-04T04:46:16;100993.75;;;16.30;44.94
30302;BME280;17111;52.130;5.028;2023-12-04T04:48:42;100998.28;;;16.29;45.56
30302;BME280;17111;52.130;5.028;2023-12-04T04:51:09;100995.72;;;16.28;45.50
30302;BME280;17111;52.130;5.028;2023-12-04T04:53:36;100999.53;;;16.25;44.79
30302;BME280;17111;52.130;5.028;2023-12-04T04:56:02;100988.94;;;16.24;44.77
30302;BME280;17111;52.130;5.028;2023-12-04T04:58:29;100988.09;;;16.23;45.33
30302;BME280;17111;52.130;5.028;2023-12-04T05:00:56;100981.06;;;16.22;44.52
30302;BME280;17111;52.130;5.028;2023-12-04T05:03:22;100990.78;;;16.23;44.90
30302;BME280;17111;52.130;5.028;2023-12-04T05:05:50;100982.91;;;16.22;45.33
30302;BME280;17111;52.130;5.028;2023-12-04T05:08:17;100980.50;;;16.19;44.68
30302;BME280;17111;52.130;5.028;2023-12-04T05:10:44;100982.34;;;16.18;45.64
30302;BME280;17111;52.130;5.028;2023-12-04T05:13:10;100982.19;;;16.20;44.79
30302;BME280;17111;52.130;5.028;2023-12-04T05:15:37;100973.91;;;16.23;45.71
30302;BME280;17111;52.130;5.028;2023-12-04T05:18:04;100977.88;;;16.28;45.48
30302;BME280;17111;52.130;5.028;2023-12-04T05:20:31;100970.09;;;16.35;45.34
30302;BME280;17111;52.130;5.028;2023-12-04T05:22:57;100977.44;;;16.43;44.93
30302;BME280;17111;52.130;5.028;2023-12-04T05:25:24;100960.69;;;16.50;44.32
30302;BME280;17111;52.130;5.028;2023-12-04T05:27:57;100953.78;;;16.58;44.37
30302;BME280;17111;52.130;5.028;2023-12-04T05:30:23;100940.81;;;16.63;44.33
30302;BME280;17111;52.130;5.028;2023-12-04T05:32:50;100946.75;;;16.66;44.37
30302;BME280;17111;52.130;5.028;2023-12-04T05:35:17;100940.41;;;16.67;44.69
30302;BME280;17111;52.130;5.028;2023-12-04T05:37:44;100930.53;;;16.68;44.29
30302;BME280;17111;52.130;5.028;2023-12-04T05:40:11;100936.88;;;16.67;44.07
30302;BME280;17111;52.130;5.028;2023-12-04T05:42:38;100930.97;;;16.63;44.22
30302;BME280;17111;52.130;5.028;2023-12-04T05:45:05;100926.88;;;16.59;44.00
30302;BME280;17111;52.130;5.028;2023-12-04T05:47:34;100926.31;;;16.56;44.33
30302;BME280;17111;52.130;5.028;2023-12-04T05:50:01;100925.75;;;16.52;44.96
30302;BME280;17111;52.130;5.028;2023-12-04T05:52:28;100928.00;;;16.47;44.88
30302;BME280;17111;52.130;5.028;2023-12-04T05:54:54;100922.41;;;16.40;44.33
30302;BME280;17111;52.130;5.028;2023-12-04T05:57:21;100921.13;;;16.35;44.43
30302;BME280;17111;52.130;5.028;2023-12-04T05:59:48;100915.34;;;16.29;43.93
30302;BME280;17111;52.130;5.028;2023-12-04T06:02:14;100917.47;;;16.26;43.51
30302;BME280;17111;52.130;5.028;2023-12-04T06:04:42;100909.03;;;16.21;43.89
30302;BME280;17111;52.130;5.028;2023-12-04T06:07:09;100906.63;;;16.18;44.23
30302;BME280;17111;52.130;5.028;2023-12-04T06:09:35;100904.22;;;16.15;43.92
30302;BME280;17111;52.130;5.028;2023-12-04T06:12:05;100908.03;;;16.12;44.41
30302;BME280;17111;52.130;5.028;2023-12-04T06:14:35;100903.81;;;16.10;44.46
30302;BME280;17111;52.130;5.028;2023-12-04T06:17:01;100903.22;;;16.06;44.26
30302;BME280;17111;52.130;5.028;2023-12-04T06:19:28;100899.88;;;16.04;43.58
30302;BME280;17111;52.130;5.028;2023-12-04T06:21:55;100897.59;;;15.99;43.64
30302;BME280;17111;52.130;5.028;2023-12-04T06:24:22;100905.59;;;15.99;43.82
30302;BME280;17111;52.130;5.028;2023-12-04T06:26:50;100890.81;;;15.95;43.44
30302;BME280;17111;52.130;5.028;2023-12-04T06:29:17;100886.63;;;15.93;43.52
30302;BME280;17111;52.130;5.028;2023-12-04T06:31:44;100888.56;;;15.91;43.53
30302;BME280;17111;52.130;5.028;2023-12-04T06:34:11;100877.03;;;15.90;43.29
30302;BME280;17111;52.130;5.028;2023-12-04T06:36:38;100882.25;;;15.92;44.04
30302;BME280;17111;52.130;5.028;2023-12-04T06:39:10;100890.97;;;15.94;43.71
30302;BME280;17111;52.130;5.028;2023-12-04T06:41:41;100886.91;;;15.99;43.46
30302;BME280;17111;52.130;5.028;2023-12-04T06:44:09;100881.84;;;16.06;43.79
30302;BME280;17111;52.130;5.028;2023-12-04T06:46:37;100880.16;;;16.15;43.37
30302;BME280;17111;52.130;5.028;2023-12-04T06:49:05;100876.63;;;16.24;43.61
30302;BME280;17111;52.130;5.028;2023-12-04T06:51:34;100875.81;;;16.33;43.78
30302;BME280;17111;52.130;5.028;2023-12-04T06:54:01;100861.84;;;16.39;42.78
30302;BME280;17111;52.130;5.028;2023-12-04T06:56:28;100865.81;;;16.45;43.36
30302;BME280;17111;52.130;5.028;2023-12-04T06:58:55;100868.88;;;16.50;42.57
30302;BME280;17111;52.130;5.028;2023-12-04T07:01:22;100868.59;;;16.53;42.65
30302;BME280;17111;52.130;5.028;2023-12-04T07:03:49;100857.06;;;16.52;42.92
30302;BME280;17111;52.130;5.028;2023-12-04T07:06:15;100855.50;;;16.50;43.21
30302;BME280;17111;52.130;5.028;2023-12-04T07:08:42;100849.44;;;16.48;43.33
30302;BME280;17111;52.130;5.028;2023-12-04T07:11:09;100853.09;;;16.47;42.88
30302;BME280;17111;52.130;5.028;2023-12-04T07:13:36;100854.78;;;16.48;42.93
30302;BME280;17111;52.130;5.028;2023-12-04T07:16:03;100861.69;;;16.50;43.24
30302;BME280;17111;52.130;5.028;2023-12-04T07:18:29;100857.75;;;16.54;43.55
30302;BME280;17111;52.130;5.028;2023-12-04T07:20:56;100854.34;;;16.62;43.48
30302;BME280;17111;52.130;5.028;2023-12-04T07:23:23;100841.25;;;16.69;42.75
30302;BME280;17111;52.130;5.028;2023-12-04T07:25:53;100853.06;;;16.76;43.22
30302;BME280;17111;52.130;5.028;2023-12-04T07:28:19;100845.16;;;16.84;43.62
30302;BME280;17111;52.130;5.028;2023-12-04T07:30:46;100850.78;;;16.91;42.89
30302;BME280;17111;52.130;5.028;2023-12-04T07:33:13;100854.56;;;16.98;43.23
30302;BME280;17111;52.130;5.028;2023-12-04T07:35:39;100844.97;;;17.05;43.24
30302;BME280;17111;52.130;5.028;2023-12-04T07:38:06;100840.00;;;17.10;43.22
30302;BME280;17111;52.130;5.028;2023-12-04T07:40:33;100837.59;;;17.17;42.87
30302;BME280;17111;52.130;5.028;2023-12-04T07:42:59;100834.47;;;17.21;43.71
30302;BME280;17111;52.130;5.028;2023-12-04T07:45:26;100839.38;;;17.26;43.35
30302;BME280;17111;52.130;5.028;2023-12-04T07:47:53;100847.78;;;17.31;43.37
30302;BME280;17111;52.130;5.028;2023-12-04T07:50:20;100840.16;;;17.36;43.41
30302;BME280;17111;52.130;5.028;2023-12-04T07:52:46;100836.16;;;17.40;43.11
30302;BME280;17111;52.130;5.028;2023-12-04T07:55:13;100832.38;;;17.43;43.36
30302;BME280;17111;52.130;5.028;2023-12-04T07:57:40;100831.06;;;17.47;43.10
30302;BME280;17111;52.130;5.028;2023-12-04T08:00:07;100842.34;;;17.50;43.28
30302;BME280;17111;52.130;5.028;2023-12-04T08:02:34;100833.16;;;17.53;42.73
30302;BME280;17111;52.130;5.028;2023-12-04T08:05:01;100827.47;;;17.56;43.46
30302;BME280;17111;52.130;5.028;2023-12-04T08:07:27;100828.03;;;17.60;43.05
30302;BME280;17111;52.130;5.028;2023-12-04T08:09:54;100834.09;;;17.62;43.44
30302;BME280;17111;52.130;5.028;2023-12-04T08:12:21;100836.47;;;17.65;43.83
30302;BME280;17111;52.130;5.028;2023-12-04T08:14:48;100829.94;;;17.67;43.32
30302;BME280;17111;52.130;5.028;2023-12-04T08:17:14;100831.63;;;17.68;42.83
30302;BME280;17111;52.130;5.028;2023-12-04T08:19:41;100827.97;;;17.69;42.76
30302;BME280;17111;52.130;5.028;2023-12-04T08:22:08;100826.97;;;17.70;42.78
30302;BME280;17111;52.130;5.028;2023-12-04T08:24:35;100832.88;;;17.74;42.73
30302;BME280;17111;52.130;5.028;2023-12-04T08:27:01;100819.34;;;17.75;42.77
30302;BME280;17111;52.130;5.028;2023-12-04T08:29:28;100829.06;;;17.76;42.56
30302;BME280;17111;52.130;5.028;2023-12-04T08:31:55;100825.25;;;17.79;42.47
30302;BME280;17111;52.130;5.028;2023-12-04T08:34:21;100828.75;;;17.80;42.27
30302;BME280;17111;52.130;5.028;2023-12-04T08:36:48;100818.75;;;17.82;42.44
30302;BME280;17111;52.130;5.028;2023-12-04T08:39:15;100815.72;;;17.85;42.64
30302;BME280;17111;52.130;5.028;2023-12-04T08:41:47;100805.72;;;17.87;42.47
30302;BME280;17111;52.130;5.028;2023-12-04T08:44:27;100803.72;;;17.89;42.62
30302;BME280;17111;52.130;5.028;2023-12-04T08:46:54;100799.22;;;17.89;42.62
30302;BME280;17111;52.130;5.028;2023-12-04T08:49:21;100809.78;;;17.91;42.83
30302;BME280;17111;52.130;5.028;2023-12-04T08:51:51;100797.03;;;17.93;42.40
30302;BME280;17111;52.130;5.028;2023-12-04T08:54:19;100789.88;;;17.93;42.99
30302;BME280;17111;52.130;5.028;2023-12-04T08:56:45;100784.50;;;17.93;42.82
30302;BME280;17111;52.130;5.028;2023-12-04T08:59:12;100787.19;;;17.93;42.66
30302;BME280;17111;52.130;5.028;2023-12-04T09:01:39;100784.50;;;17.93;42.28
30302;BME280;17111;52.130;5.028;2023-12-04T09:04:08;100789.16;;;17.91;42.53
30302;BME280;17111;52.130;5.028;2023-12-04T09:06:35;100780.56;;;17.88;42.58
30302;BME280;17111;52.130;5.028;2023-12-04T09:09:05;100787.25;;;17.84;42.14
30302;BME280;17111;52.130;5.028;2023-12-04T09:11:43;100786.88;;;17.79;42.41
30302;BME280;17111;52.130;5.028;2023-12-04T09:14:10;100787.44;;;17.72;42.34
30302;BME280;17111;52.130;5.028;2023-12-04T09:16:37;100785.56;;;17.65;42.28
30302;BME280;17111;52.130;5.028;2023-12-04T09:19:04;100779.94;;;17.58;42.31
30302;BME280;17111;52.130;5.028;2023-12-04T09:21:31;100779.69;;;17.51;42.64
30302;BME280;17111;52.130;5.028;2023-12-04T09:23:58;100772.41;;;17.44;42.43
30302;BME280;17111;52.130;5.028;2023-12-04T09:26:24;100784.75;;;17.37;42.32
30302;BME280;17111;52.130;5.028;2023-12-04T09:28:51;100772.94;;;17.30;42.51
30302;BME280;17111;52.130;5.028;2023-12-04T09:31:18;100772.84;;;17.21;42.25
30302;BME280;17111;52.130;5.028;2023-12-04T09:33:46;100779.63;;;17.16;42.73
30302;BME280;17111;52.130;5.028;2023-12-04T09:36:14;100781.94;;;17.11;42.40
30302;BME280;17111;52.130;5.028;2023-12-04T09:38:40;100777.19;;;17.05;42.62
30302;BME280;17111;52.130;5.028;2023-12-04T09:41:08;100778.59;;;16.99;42.95
30302;BME280;17111;52.130;5.028;2023-12-04T09:43:37;100780.88;;;16.94;42.60
30302;BME280;17111;52.130;5.028;2023-12-04T09:46:04;100783.00;;;16.90;42.81
30302;BME280;17111;52.130;5.028;2023-12-04T09:48:32;100779.09;;;16.85;42.95
30302;BME280;17111;52.130;5.028;2023-12-04T09:51:00;100791.09;;;16.81;42.53
30302;BME280;17111;52.130;5.028;2023-12-04T09:53:30;100789.84;;;16.75;43.08
30302;BME280;17111;52.130;5.028;2023-12-04T09:56:00;100783.91;;;16.71;42.77
30302;BME280;17111;52.130;5.028;2023-12-04T09:58:29;100779.81;;;16.67;42.47
30302;BME280;17111;52.130;5.028;2023-12-04T10:01:01;100777.31;;;16.66;42.51
30302;BME280;17111;52.130;5.028;2023-12-04T10:03:29;100773.63;;;16.67;42.33
30302;BME280;17111;52.130;5.028;2023-12-04T10:05:57;100768.16;;;16.68;43.01
30302;BME280;17111;52.130;5.028;2023-12-04T10:08:23;100764.19;;;16.72;42.49
30302;BME280;17111;52.130;5.028;2023-12-04T10:10:50;100764.34;;;16.81;43.36
30302;BME280;17111;52.130;5.028;2023-12-04T10:13:17;100762.88;;;16.86;43.09
30302;BME280;17111;52.130;5.028;2023-12-04T10:16:04;100762.16;;;16.94;42.77
30302;BME280;17111;52.130;5.028;2023-12-04T10:18:31;100756.34;;;16.98;43.11
30302;BME280;17111;52.130;5.028;2023-12-04T10:20:59;100748.69;;;17.03;43.09
30302;BME280;17111;52.130;5.028;2023-12-04T10:23:42;100738.53;;;17.07;42.72
30302;BME280;17111;52.130;5.028;2023-12-04T10:26:08;100731.88;;;17.11;42.86
30302;BME280;17111;52.130;5.028;2023-12-04T10:28:35;100733.44;;;17.14;43.04
30302;BME280;17111;52.130;5.028;2023-12-04T10:31:02;100722.56;;;17.15;42.87
30302;BME280;17111;52.130;5.028;2023-12-04T10:33:33;100726.91;;;17.16;43.44
30302;BME280;17111;52.130;5.028;2023-12-04T10:36:00;100723.41;;;17.16;42.89
30302;BME280;17111;52.130;5.028;2023-12-04T10:38:26;100712.00;;;17.14;42.97
30302;BME280;17111;52.130;5.028;2023-12-04T10:40:53;100702.59;;;17.10;43.07
30302;BME280;17111;52.130;5.028;2023-12-04T10:43:21;100698.66;;;17.04;42.98
30302;BME280;17111;52.130;5.028;2023-12-04T10:45:49;100690.94;;;17.01;43.24
30302;BME280;17111;52.130;5.028;2023-12-04T10:48:17;100688.56;;;16.98;43.36
30302;BME280;17111;52.130;5.028;2023-12-04T10:50:46;100685.06;;;16.97;43.85
30302;BME280;17111;52.130;5.028;2023-12-04T10:53:15;100686.72;;;16.98;43.45
30302;BME280;17111;52.130;5.028;2023-12-04T10:55:43;100677.69;;;16.99;43.63
30302;BME280;17111;52.130;5.028;2023-12-04T10:58:14;100671.38;;;17.00;43.07
30302;BME280;17111;52.130;5.028;2023-12-04T11:00:48;100668.81;;;16.99;43.52
30302;BME280;17111;52.130;5.028;2023-12-04T11:03:31;100669.00;;;16.97;43.73
30302;BME280;17111;52.130;5.028;2023-12-04T11:06:00;100661.25;;;16.94;44.02
30302;BME280;17111;52.130;5.028;2023-12-04T11:08:33;100661.25;;;16.94;43.46
30302;BME280;17111;52.130;5.028;2023-12-04T11:11:04;100659.88;;;16.90;43.82
30302;BME280;17111;52.130;5.028;2023-12-04T11:13:37;100649.47;;;16.87;43.55
30302;BME280;17111;52.130;5.028;2023-12-04T11:16:34;100645.56;;;16.82;44.29
30302;BME280;17111;52.130;5.028;2023-12-04T11:21:59;100646.84;;;16.77;43.88
30302;BME280;17111;52.130;5.028;2023-12-04T11:24:27;100634.31;;;16.78;44.01
30302;BME280;17111;52.130;5.028;2023-12-04T11:26:54;100630.50;;;16.81;44.11
30302;BME280;17111;52.130;5.028;2023-12-04T11:29:22;100634.94;;;16.90;44.05
30302;BME280;17111;52.130;5.028;2023-12-04T11:31:50;100631.50;;;16.97;43.99
30302;BME280;17111;52.130;5.028;2023-12-04T11:34:16;100636.78;;;17.07;44.92
30302;BME280;17111;52.130;5.028;2023-12-04T11:36:44;100619.94;;;17.15;44.75
30302;BME280;17111;52.130;5.028;2023-12-04T11:39:11;100622.88;;;17.21;44.16
30302;BME280;17111;52.130;5.028;2023-12-04T11:41:40;100621.94;;;17.31;44.22
30302;BME280;17111;52.130;5.028;2023-12-04T11:44:14;100614.13;;;17.37;44.54
30302;BME280;17111;52.130;5.028;2023-12-04T11:47:02;100611.66;;;17.44;44.36
30302;BME280;17111;52.130;5.028;2023-12-04T11:49:32;100607.38;;;17.51;44.18
30302;BME280;17111;52.130;5.028;2023-12-04T11:51:59;100608.56;;;17.57;44.55
30302;BME280;17111;52.130;5.028;2023-12-04T11:54:27;100607.13;;;17.62;44.53
30302;BME280;17111;52.130;5.028;2023-12-04T11:59:37;100612.22;;;17.73;44.38
30302;BME280;17111;52.130;5.028;2023-12-04T12:02:08;100614.59;;;17.76;44.35
30302;BME280;17111;52.130;5.028;2023-12-04T12:04:35;100611.63;;;17.80;44.18
30302;BME280;17111;52.130;5.028;2023-12-04T12:07:05;100609.63;;;17.82;43.84
30302;BME280;17111;52.130;5.028;2023-12-04T12:09:33;100601.59;;;17.82;43.96
30302;BME280;17111;52.130;5.028;2023-12-04T12:12:03;100603.56;;;17.80;44.00
30302;BME280;17111;52.130;5.028;2023-12-04T12:14:31;100604.56;;;17.79;43.81
30302;BME280;17111;52.130;5.028;2023-12-04T12:16:59;100596.84;;;17.75;43.49
30302;BME280;17111;52.130;5.028;2023-12-04T12:19:26;100590.25;;;17.70;43.58
30302;BME280;17111;52.130;5.028;2023-12-04T12:21:54;100581.69;;;17.66;43.21
30302;BME280;17111;52.130;5.028;2023-12-04T12:24:23;100579.63;;;17.60;43.65
30302;BME280;17111;52.130;5.028;2023-12-04T12:26:50;100571.22;;;17.55;43.65
30302;BME280;17111;52.130;5.028;2023-12-04T12:29:17;100567.34;;;17.49;43.83
30302;BME280;17111;52.130;5.028;2023-12-04T12:31:43;100563.59;;;17.42;43.75
30302;BME280;17111;52.130;5.028;2023-12-04T12:34:12;100563.22;;;17.37;43.96
30302;BME280;17111;52.130;5.028;2023-12-04T12:36:40;100558.34;;;17.33;44.21
30302;BME280;17111;52.130;5.028;2023-12-04T12:39:07;100559.78;;;17.27;43.85
30302;BME280;17111;52.130;5.028;2023-12-04T12:41:35;100549.56;;;17.22;44.23
30302;BME280;17111;52.130;5.028;2023-12-04T12:44:02;100543.00;;;17.17;44.22
30302;BME280;17111;52.130;5.028;2023-12-04T12:46:30;100547.94;;;17.12;44.22
30302;BME280;17111;52.130;5.028;2023-12-04T12:48:56;100537.56;;;17.09;44.05
30302;BME280;17111;52.130;5.028;2023-12-04T12:51:25;100532.66;;;17.04;44.63
30302;BME280;17111;52.130;5.028;2023-12-04T12:53:52;100528.59;;;17.00;44.24
30302;BME280;17111;52.130;5.028;2023-12-04T12:56:19;100528.94;;;16.97;44.90
30302;BME280;17111;52.130;5.028;2023-12-04T12:58:46;100523.03;;;16.93;44.44